sensor_id;sensor_type;location;lat;lon;timestamp;P1;durP1;ratioP1;P2;durP2;ratioP2
15806;SDS011;8005;51.368;6.140;2022-09-09T00:01:28;5.53;;;2.50;;
15806;SDS011;8005;51.368;6.140;2022-09-09T00:03:17;5.38;;;3.03;;
15806;SDS011;8005;51.368;6.140;2022-09-09T00:04:58;5.65;;;2.60;;
15806;SDS011;8005;51.368;6.140;2022-09-09T00:06:33;5.57;;;2.88;;
15806;SDS011;8005;51.368;6.140;2022-09-09T00:08:18;5.75;;;2.90;;
15806;SDS011;8005;51.368;6.140;2022-09-09T00:10:00;5.78;;;2.63;;
15806;SDS011;8005;51.368;6.140;2022-09-09T00:11:56;4.60;;;2.85;;
15806;SDS011;8005;51.368;6.140;2022-09-09T00:13:37;5.13;;;2.47;;
15806;SDS011;8005;51.368;6.140;2022-09-09T00:15:16;5.20;;;2.72;;
15806;SDS011;8005;51.368;6.140;2022-09-09T00:16:54;6.72;;;2.80;;
15806;SDS011;8005;51.368;6.140;2022-09-09T00:23:46;5.20;;;3.47;;
15806;SDS011;8005;51.368;6.140;2022-09-09T00:25:29;4.97;;;2.70;;
15806;SDS011;8005;51.368;6.140;2022-09-09T00:27:08;6.15;;;3.15;;
15806;SDS011;8005;51.368;6.140;2022-09-09T00:28:49;4.93;;;2.80;;
15806;SDS011;8005;51.368;6.140;2022-09-09T00:30:26;5.90;;;2.83;;
15806;SDS011;8005;51.368;6.140;2022-09-09T00:32:05;6.88;;;2.35;;
15806;SDS011;8005;51.368;6.140;2022-09-09T00:33:44;5.25;;;2.40;;
15806;SDS011;8005;51.368;6.140;2022-09-09T00:35:18;6.38;;;2.38;;
15806;SDS011;8005;51.368;6.140;2022-09-09T00:36:57;4.60;;;2.25;;
15806;SDS011;8005;51.368;6.140;2022-09-09T00:38:36;7.53;;;2.40;;
15806;SDS011;8005;51.368;6.140;2022-09-09T00:40:18;5.57;;;2.35;;
15806;SDS011;8005;51.368;6.140;2022-09-09T00:44:03;7.25;;;2.40;;
15806;SDS011;8005;51.368;6.140;2022-09-09T00:45:51;6.32;;;2.50;;
15806;SDS011;8005;51.368;6.140;2022-09-09T00:51:23;5.28;;;3.08;;
15806;SDS011;8005;51.368;6.140;2022-09-09T00:56:32;5.40;;;2.60;;
15806;SDS011;8005;51.368;6.140;2022-09-09T00:58:13;6.57;;;2.78;;
15806;SDS011;8005;51.368;6.140;2022-09-09T00:59:47;8.43;;;2.67;;
15806;SDS011;8005;51.368;6.140;2022-09-09T01:01:21;3.95;;;2.65;;
15806;SDS011;8005;51.368;6.140;2022-09-09T01:02:59;6.32;;;2.90;;
15806;SDS011;8005;51.368;6.140;2022-09-09T01:05:01;6.85;;;2.90;;
15806;SDS011;8005;51.368;6.140;2022-09-09T01:06:39;5.85;;;2.88;;
15806;SDS011;8005;51.368;6.140;2022-09-09T01:08:17;4.53;;;2.60;;
15806;SDS011;8005;51.368;6.140;2022-09-09T01:10:00;6.30;;;2.40;;
15806;SDS011;8005;51.368;6.140;2022-09-09T01:13:35;5.50;;;3.28;;
15806;SDS011;8005;51.368;6.140;2022-09-09T01:15:22;8.50;;;3.28;;
15806;SDS011;8005;51.368;6.140;2022-09-09T01:16:59;7.05;;;2.80;;
15806;SDS011;8005;51.368;6.140;2022-09-09T01:18:46;4.57;;;2.50;;
15806;SDS011;8005;51.368;6.140;2022-09-09T01:20:23;6.03;;;2.90;;
15806;SDS011;8005;51.368;6.140;2022-09-09T01:22:10;4.40;;;2.35;;
15806;SDS011;8005;51.368;6.140;2022-09-09T01:27:28;7.25;;;2.28;;
15806;SDS011;8005;51.368;6.140;2022-09-09T01:29:00;5.70;;;2.50;;
15806;SDS011;8005;51.368;6.140;2022-09-09T01:30:38;7.22;;;2.28;;
15806;SDS011;8005;51.368;6.140;2022-09-09T01:34:19;5.78;;;2.10;;
15806;SDS011;8005;51.368;6.140;2022-09-09T01:35:53;10.48;;;2.80;;
15806;SDS011;8005;51.368;6.140;2022-09-09T01:37:34;5.78;;;2.72;;
15806;SDS011;8005;51.368;6.140;2022-09-09T01:39:06;6.55;;;2.45;;
15806;SDS011;8005;51.368;6.140;2022-09-09T01:40:38;4.28;;;2.42;;
15806;SDS011;8005;51.368;6.140;2022-09-09T01:42:11;5.80;;;2.30;;
15806;SDS011;8005;51.368;6.140;2022-09-09T01:43:45;3.70;;;2.60;;
15806;SDS011;8005;51.368;6.140;2022-09-09T01:45:17;5.75;;;2.45;;
15806;SDS011;8005;51.368;6.140;2022-09-09T01:46:52;5.63;;;2.40;;
15806;SDS011;8005;51.368;6.140;2022-09-09T01:48:25;5.82;;;2.35;;
15806;SDS011;8005;51.368;6.140;2022-09-09T01:50:08;6.28;;;2.25;;
15806;SDS011;8005;51.368;6.140;2022-09-09T01:51:43;7.28;;;2.28;;
15806;SDS011;8005;51.368;6.140;2022-09-09T01:53:18;7.55;;;2.42;;
15806;SDS011;8005;51.368;6.140;2022-09-09T01:54:51;6.60;;;2.33;;
15806;SDS011;8005;51.368;6.140;2022-09-09T02:03:43;6.38;;;1.88;;
15806;SDS011;8005;51.368;6.140;2022-09-09T02:05:28;3.60;;;1.33;;
15806;SDS011;8005;51.368;6.140;2022-09-09T02:07:02;4.55;;;1.48;;
15806;SDS011;8005;51.368;6.140;2022-09-09T02:08:44;5.25;;;1.60;;
15806;SDS011;8005;51.368;6.140;2022-09-09T02:10:22;4.75;;;1.42;;
15806;SDS011;8005;51.368;6.140;2022-09-09T02:12:11;4.68;;;1.50;;
15806;SDS011;8005;51.368;6.140;2022-09-09T02:14:12;5.90;;;1.45;;
15806;SDS011;8005;51.368;6.140;2022-09-09T02:16:04;4.97;;;2.05;;
15806;SDS011;8005;51.368;6.140;2022-09-09T02:17:41;4.20;;;1.30;;
15806;SDS011;8005;51.368;6.140;2022-09-09T02:19:20;3.38;;;1.48;;
15806;SDS011;8005;51.368;6.140;2022-09-09T02:21:13;3.95;;;1.35;;
15806;SDS011;8005;51.368;6.140;2022-09-09T02:22:46;5.63;;;1.67;;
15806;SDS011;8005;51.368;6.140;2022-09-09T02:24:22;3.70;;;1.70;;
15806;SDS011;8005;51.368;6.140;2022-09-09T02:26:05;4.30;;;1.50;;
15806;SDS011;8005;51.368;6.140;2022-09-09T02:27:40;3.45;;;1.25;;
15806;SDS011;8005;51.368;6.140;2022-09-09T02:29:14;7.03;;;1.60;;
15806;SDS011;8005;51.368;6.140;2022-09-09T02:30:50;5.55;;;1.67;;
15806;SDS011;8005;51.368;6.140;2022-09-09T02:32:33;5.32;;;1.70;;
15806;SDS011;8005;51.368;6.140;2022-09-09T02:34:08;5.82;;;1.95;;
15806;SDS011;8005;51.368;6.140;2022-09-09T02:35:42;7.22;;;1.80;;
15806;SDS011;8005;51.368;6.140;2022-09-09T02:37:17;5.30;;;1.90;;
15806;SDS011;8005;51.368;6.140;2022-09-09T02:38:54;7.35;;;1.95;;
15806;SDS011;8005;51.368;6.140;2022-09-09T02:40:31;4.50;;;1.73;;
15806;SDS011;8005;51.368;6.140;2022-09-09T02:42:06;3.97;;;1.63;;
15806;SDS011;8005;51.368;6.140;2022-09-09T02:43:39;4.07;;;1.38;;
15806;SDS011;8005;51.368;6.140;2022-09-09T02:45:19;4.97;;;1.52;;
15806;SDS011;8005;51.368;6.140;2022-09-09T02:47:07;3.97;;;1.73;;
15806;SDS011;8005;51.368;6.140;2022-09-09T02:50:34;7.55;;;2.10;;
15806;SDS011;8005;51.368;6.140;2022-09-09T02:52:14;7.15;;;1.60;;
15806;SDS011;8005;51.368;6.140;2022-09-09T02:54:04;5.30;;;2.30;;
15806;SDS011;8005;51.368;6.140;2022-09-09T02:55:47;4.65;;;1.70;;
15806;SDS011;8005;51.368;6.140;2022-09-09T02:57:27;6.57;;;2.17;;
15806;SDS011;8005;51.368;6.140;2022-09-09T02:59:03;4.80;;;1.90;;
15806;SDS011;8005;51.368;6.140;2022-09-09T03:00:37;10.05;;;2.70;;
15806;SDS011;8005;51.368;6.140;2022-09-09T03:02:11;4.22;;;2.30;;
15806;SDS011;8005;51.368;6.140;2022-09-09T03:03:46;8.05;;;2.15;;
15806;SDS011;8005;51.368;6.140;2022-09-09T03:05:20;4.38;;;2.22;;
15806;SDS011;8005;51.368;6.140;2022-09-09T03:06:54;6.15;;;2.25;;
15806;SDS011;8005;51.368;6.140;2022-09-09T03:08:26;4.53;;;2.17;;
15806;SDS011;8005;51.368;6.140;2022-09-09T03:10:00;7.80;;;2.47;;
15806;SDS011;8005;51.368;6.140;2022-09-09T03:11:33;6.78;;;2.60;;
15806;SDS011;8005;51.368;6.140;2022-09-09T03:13:05;9.45;;;2.70;;
15806;SDS011;8005;51.368;6.140;2022-09-09T03:14:41;9.27;;;2.70;;
15806;SDS011;8005;51.368;6.140;2022-09-09T03:16:15;7.00;;;2.70;;
15806;SDS011;8005;51.368;6.140;2022-09-09T03:17:50;7.45;;;2.50;;
15806;SDS011;8005;51.368;6.140;2022-09-09T03:19:23;6.45;;;2.47;;
15806;SDS011;8005;51.368;6.140;2022-09-09T03:20:56;8.20;;;2.85;;
15806;SDS011;8005;51.368;6.140;2022-09-09T03:22:29;9.90;;;2.35;;
15806;SDS011;8005;51.368;6.140;2022-09-09T03:24:03;5.35;;;2.15;;
15806;SDS011;8005;51.368;6.140;2022-09-09T03:25:35;6.57;;;2.50;;
15806;SDS011;8005;51.368;6.140;2022-09-09T03:27:08;10.60;;;2.85;;
15806;SDS011;8005;51.368;6.140;2022-09-09T03:28:41;9.65;;;2.78;;
15806;SDS011;8005;51.368;6.140;2022-09-09T03:30:14;9.00;;;2.17;;
15806;SDS011;8005;51.368;6.140;2022-09-09T03:31:47;10.38;;;2.65;;
15806;SDS011;8005;51.368;6.140;2022-09-09T03:33:19;7.45;;;2.65;;
15806;SDS011;8005;51.368;6.140;2022-09-09T03:34:51;5.88;;;2.33;;
15806;SDS011;8005;51.368;6.140;2022-09-09T03:36:24;7.90;;;2.78;;
15806;SDS011;8005;51.368;6.140;2022-09-09T03:37:57;7.43;;;2.13;;
15806;SDS011;8005;51.368;6.140;2022-09-09T03:39:35;6.65;;;2.20;;
15806;SDS011;8005;51.368;6.140;2022-09-09T03:41:07;6.57;;;2.22;;
15806;SDS011;8005;51.368;6.140;2022-09-09T03:42:41;8.80;;;1.85;;
15806;SDS011;8005;51.368;6.140;2022-09-09T03:44:14;6.03;;;2.42;;
15806;SDS011;8005;51.368;6.140;2022-09-09T03:45:47;11.27;;;2.40;;
15806;SDS011;8005;51.368;6.140;2022-09-09T03:47:20;6.80;;;2.70;;
15806;SDS011;8005;51.368;6.140;2022-09-09T03:49:01;6.43;;;2.30;;
15806;SDS011;8005;51.368;6.140;2022-09-09T03:50:35;7.13;;;2.08;;
15806;SDS011;8005;51.368;6.140;2022-09-09T03:52:08;6.27;;;2.57;;
15806;SDS011;8005;51.368;6.140;2022-09-09T03:53:40;8.27;;;2.33;;
15806;SDS011;8005;51.368;6.140;2022-09-09T03:55:12;9.07;;;2.57;;
15806;SDS011;8005;51.368;6.140;2022-09-09T03:56:44;6.85;;;2.40;;
15806;SDS011;8005;51.368;6.140;2022-09-09T03:59:51;10.68;;;3.97;;
15806;SDS011;8005;51.368;6.140;2022-09-09T04:01:23;5.60;;;1.87;;
15806;SDS011;8005;51.368;6.140;2022-09-09T04:02:58;10.68;;;2.40;;
15806;SDS011;8005;51.368;6.140;2022-09-09T04:04:30;4.60;;;2.15;;
15806;SDS011;8005;51.368;6.140;2022-09-09T04:06:02;6.67;;;2.30;;
15806;SDS011;8005;51.368;6.140;2022-09-09T04:07:36;7.18;;;2.10;;
15806;SDS011;8005;51.368;6.140;2022-09-09T04:09:08;8.30;;;2.47;;
15806;SDS011;8005;51.368;6.140;2022-09-09T04:10:40;5.85;;;1.98;;
15806;SDS011;8005;51.368;6.140;2022-09-09T04:12:13;6.68;;;2.13;;
15806;SDS011;8005;51.368;6.140;2022-09-09T04:13:45;6.00;;;1.88;;
15806;SDS011;8005;51.368;6.140;2022-09-09T04:15:18;5.57;;;1.90;;
15806;SDS011;8005;51.368;6.140;2022-09-09T04:16:50;5.68;;;2.40;;
15806;SDS011;8005;51.368;6.140;2022-09-09T04:18:23;7.13;;;2.23;;
15806;SDS011;8005;51.368;6.140;2022-09-09T04:19:55;6.97;;;3.22;;
15806;SDS011;8005;51.368;6.140;2022-09-09T04:21:28;5.25;;;2.22;;
15806;SDS011;8005;51.368;6.140;2022-09-09T04:23:00;5.93;;;2.13;;
15806;SDS011;8005;51.368;6.140;2022-09-09T04:24:32;6.38;;;2.13;;
15806;SDS011;8005;51.368;6.140;2022-09-09T04:26:07;9.68;;;2.42;;
15806;SDS011;8005;51.368;6.140;2022-09-09T04:29:12;7.53;;;2.28;;
15806;SDS011;8005;51.368;6.140;2022-09-09T04:30:45;7.27;;;2.40;;
15806;SDS011;8005;51.368;6.140;2022-09-09T04:32:17;9.63;;;2.38;;
15806;SDS011;8005;51.368;6.140;2022-09-09T04:33:49;6.78;;;2.13;;
15806;SDS011;8005;51.368;6.140;2022-09-09T04:35:22;11.68;;;3.60;;
15806;SDS011;8005;51.368;6.140;2022-09-09T04:36:54;7.10;;;2.65;;
15806;SDS011;8005;51.368;6.140;2022-09-09T04:38:26;5.03;;;2.22;;
15806;SDS011;8005;51.368;6.140;2022-09-09T04:41:34;9.80;;;2.50;;
15806;SDS011;8005;51.368;6.140;2022-09-09T04:43:07;13.10;;;3.13;;
15806;SDS011;8005;51.368;6.140;2022-09-09T04:44:46;9.65;;;3.58;;
15806;SDS011;8005;51.368;6.140;2022-09-09T04:46:20;8.10;;;2.33;;
15806;SDS011;8005;51.368;6.140;2022-09-09T04:47:54;9.40;;;2.30;;
15806;SDS011;8005;51.368;6.140;2022-09-09T04:49:27;11.82;;;2.80;;
15806;SDS011;8005;51.368;6.140;2022-09-09T04:51:03;9.47;;;2.83;;
15806;SDS011;8005;51.368;6.140;2022-09-09T04:52:37;7.82;;;2.47;;
15806;SDS011;8005;51.368;6.140;2022-09-09T04:55:47;10.77;;;3.03;;
15806;SDS011;8005;51.368;6.140;2022-09-09T04:57:20;8.68;;;2.97;;
15806;SDS011;8005;51.368;6.140;2022-09-09T04:58:52;14.30;;;2.80;;
15806;SDS011;8005;51.368;6.140;2022-09-09T05:00:33;9.55;;;3.58;;
15806;SDS011;8005;51.368;6.140;2022-09-09T05:02:11;10.93;;;3.28;;
15806;SDS011;8005;51.368;6.140;2022-09-09T05:03:43;10.43;;;3.40;;
15806;SDS011;8005;51.368;6.140;2022-09-09T05:05:22;9.85;;;2.70;;
15806;SDS011;8005;51.368;6.140;2022-09-09T05:06:55;8.30;;;2.53;;
15806;SDS011;8005;51.368;6.140;2022-09-09T05:08:28;7.75;;;3.17;;
15806;SDS011;8005;51.368;6.140;2022-09-09T05:09:59;7.10;;;2.57;;
15806;SDS011;8005;51.368;6.140;2022-09-09T05:11:32;9.13;;;2.80;;
15806;SDS011;8005;51.368;6.140;2022-09-09T05:13:12;11.38;;;2.88;;
15806;SDS011;8005;51.368;6.140;2022-09-09T05:14:44;6.93;;;2.40;;
15806;SDS011;8005;51.368;6.140;2022-09-09T05:16:16;12.77;;;2.83;;
15806;SDS011;8005;51.368;6.140;2022-09-09T05:17:49;10.13;;;3.08;;
15806;SDS011;8005;51.368;6.140;2022-09-09T05:21:00;8.52;;;3.47;;
15806;SDS011;8005;51.368;6.140;2022-09-09T05:22:32;8.80;;;2.85;;
15806;SDS011;8005;51.368;6.140;2022-09-09T05:24:06;8.88;;;3.08;;
15806;SDS011;8005;51.368;6.140;2022-09-09T05:25:41;7.90;;;3.00;;
15806;SDS011;8005;51.368;6.140;2022-09-09T05:27:14;7.07;;;2.05;;
15806;SDS011;8005;51.368;6.140;2022-09-09T05:28:46;6.35;;;2.63;;
15806;SDS011;8005;51.368;6.140;2022-09-09T05:30:18;6.47;;;2.50;;
15806;SDS011;8005;51.368;6.140;2022-09-09T05:31:50;9.13;;;2.55;;
15806;SDS011;8005;51.368;6.140;2022-09-09T05:33:24;7.63;;;2.42;;
15806;SDS011;8005;51.368;6.140;2022-09-09T05:34:57;11.73;;;2.33;;
15806;SDS011;8005;51.368;6.140;2022-09-09T05:36:30;14.30;;;2.60;;
15806;SDS011;8005;51.368;6.140;2022-09-09T05:38:02;8.70;;;2.70;;
15806;SDS011;8005;51.368;6.140;2022-09-09T05:39:35;11.20;;;2.70;;
15806;SDS011;8005;51.368;6.140;2022-09-09T05:41:08;8.38;;;2.85;;
15806;SDS011;8005;51.368;6.140;2022-09-09T05:42:42;9.75;;;2.83;;
15806;SDS011;8005;51.368;6.140;2022-09-09T05:44:14;10.10;;;2.22;;
15806;SDS011;8005;51.368;6.140;2022-09-09T05:45:47;11.98;;;2.53;;
15806;SDS011;8005;51.368;6.140;2022-09-09T05:47:19;10.20;;;2.50;;
15806;SDS011;8005;51.368;6.140;2022-09-09T05:48:51;7.27;;;2.17;;
15806;SDS011;8005;51.368;6.140;2022-09-09T05:50:31;8.15;;;1.95;;
15806;SDS011;8005;51.368;6.140;2022-09-09T05:52:03;8.73;;;2.20;;
15806;SDS011;8005;51.368;6.140;2022-09-09T05:53:35;7.85;;;2.33;;
15806;SDS011;8005;51.368;6.140;2022-09-09T05:55:08;7.28;;;2.00;;
15806;SDS011;8005;51.368;6.140;2022-09-09T05:56:40;6.93;;;1.80;;
15806;SDS011;8005;51.368;6.140;2022-09-09T05:58:12;8.13;;;2.00;;
15806;SDS011;8005;51.368;6.140;2022-09-09T05:59:46;9.40;;;2.80;;
15806;SDS011;8005;51.368;6.140;2022-09-09T06:01:18;9.83;;;2.30;;
15806;SDS011;8005;51.368;6.140;2022-09-09T06:02:52;8.95;;;2.00;;
15806;SDS011;8005;51.368;6.140;2022-09-09T06:04:25;8.52;;;2.30;;
15806;SDS011;8005;51.368;6.140;2022-09-09T06:06:01;8.30;;;2.08;;
15806;SDS011;8005;51.368;6.140;2022-09-09T06:07:37;6.75;;;1.83;;
15806;SDS011;8005;51.368;6.140;2022-09-09T06:09:09;10.15;;;2.63;;
15806;SDS011;8005;51.368;6.140;2022-09-09T06:10:44;11.57;;;1.90;;
15806;SDS011;8005;51.368;6.140;2022-09-09T06:12:16;8.65;;;2.10;;
15806;SDS011;8005;51.368;6.140;2022-09-09T06:15:25;9.50;;;2.50;;
15806;SDS011;8005;51.368;6.140;2022-09-09T06:16:58;9.07;;;1.95;;
15806;SDS011;8005;51.368;6.140;2022-09-09T06:18:33;7.35;;;1.95;;
15806;SDS011;8005;51.368;6.140;2022-09-09T06:20:05;9.77;;;1.85;;
15806;SDS011;8005;51.368;6.140;2022-09-09T06:21:38;7.97;;;2.15;;
15806;SDS011;8005;51.368;6.140;2022-09-09T06:23:12;11.93;;;2.78;;
15806;SDS011;8005;51.368;6.140;2022-09-09T06:24:44;4.38;;;1.55;;
15806;SDS011;8005;51.368;6.140;2022-09-09T06:26:17;9.30;;;2.20;;
15806;SDS011;8005;51.368;6.140;2022-09-09T06:27:54;8.65;;;2.17;;
15806;SDS011;8005;51.368;6.140;2022-09-09T06:29:26;6.88;;;1.80;;
15806;SDS011;8005;51.368;6.140;2022-09-09T06:30:59;8.68;;;1.90;;
15806;SDS011;8005;51.368;6.140;2022-09-09T06:32:33;8.75;;;2.17;;
15806;SDS011;8005;51.368;6.140;2022-09-09T06:34:07;9.63;;;2.47;;
15806;SDS011;8005;51.368;6.140;2022-09-09T06:35:50;6.32;;;1.77;;
15806;SDS011;8005;51.368;6.140;2022-09-09T06:37:25;8.52;;;1.85;;
15806;SDS011;8005;51.368;6.140;2022-09-09T06:38:58;8.68;;;2.13;;
15806;SDS011;8005;51.368;6.140;2022-09-09T06:40:30;10.65;;;1.92;;
15806;SDS011;8005;51.368;6.140;2022-09-09T06:42:03;11.65;;;2.13;;
15806;SDS011;8005;51.368;6.140;2022-09-09T06:44:01;9.88;;;3.17;;
15806;SDS011;8005;51.368;6.140;2022-09-09T06:45:42;10.80;;;2.47;;
15806;SDS011;8005;51.368;6.140;2022-09-09T06:47:14;10.80;;;2.53;;
15806;SDS011;8005;51.368;6.140;2022-09-09T06:48:49;10.35;;;2.13;;
15806;SDS011;8005;51.368;6.140;2022-09-09T06:50:22;5.80;;;1.98;;
15806;SDS011;8005;51.368;6.140;2022-09-09T06:51:54;12.30;;;2.30;;
15806;SDS011;8005;51.368;6.140;2022-09-09T06:53:26;12.23;;;2.43;;
15806;SDS011;8005;51.368;6.140;2022-09-09T06:56:40;7.50;;;2.60;;
15806;SDS011;8005;51.368;6.140;2022-09-09T06:58:21;9.38;;;2.63;;
15806;SDS011;8005;51.368;6.140;2022-09-09T06:59:58;8.50;;;2.22;;
15806;SDS011;8005;51.368;6.140;2022-09-09T07:01:33;12.70;;;2.80;;
15806;SDS011;8005;51.368;6.140;2022-09-09T07:03:10;7.63;;;2.20;;
15806;SDS011;8005;51.368;6.140;2022-09-09T07:06:15;10.00;;;1.90;;
15806;SDS011;8005;51.368;6.140;2022-09-09T07:07:50;10.27;;;1.88;;
15806;SDS011;8005;51.368;6.140;2022-09-09T07:09:23;10.82;;;2.10;;
15806;SDS011;8005;51.368;6.140;2022-09-09T07:11:03;6.70;;;2.13;;
15806;SDS011;8005;51.368;6.140;2022-09-09T07:12:43;5.57;;;1.63;;
15806;SDS011;8005;51.368;6.140;2022-09-09T07:14:16;11.35;;;2.47;;
15806;SDS011;8005;51.368;6.140;2022-09-09T07:15:51;9.82;;;2.03;;
15806;SDS011;8005;51.368;6.140;2022-09-09T07:17:23;12.05;;;3.08;;
15806;SDS011;8005;51.368;6.140;2022-09-09T07:18:55;6.63;;;2.17;;
15806;SDS011;8005;51.368;6.140;2022-09-09T07:20:32;6.78;;;2.10;;
15806;SDS011;8005;51.368;6.140;2022-09-09T07:22:04;5.93;;;1.88;;
15806;SDS011;8005;51.368;6.140;2022-09-09T07:23:39;8.23;;;1.80;;
15806;SDS011;8005;51.368;6.140;2022-09-09T07:25:12;11.50;;;2.30;;
15806;SDS011;8005;51.368;6.140;2022-09-09T07:26:46;6.68;;;2.08;;
15806;SDS011;8005;51.368;6.140;2022-09-09T07:28:18;11.60;;;2.22;;
15806;SDS011;8005;51.368;6.140;2022-09-09T07:29:51;11.60;;;1.75;;
15806;SDS011;8005;51.368;6.140;2022-09-09T07:31:29;5.82;;;1.65;;
15806;SDS011;8005;51.368;6.140;2022-09-09T07:33:04;9.82;;;1.90;;
15806;SDS011;8005;51.368;6.140;2022-09-09T07:34:36;12.43;;;1.83;;
15806;SDS011;8005;51.368;6.140;2022-09-09T07:36:09;10.88;;;1.40;;
15806;SDS011;8005;51.368;6.140;2022-09-09T07:37:44;10.02;;;1.60;;
15806;SDS011;8005;51.368;6.140;2022-09-09T07:39:22;12.52;;;2.03;;
15806;SDS011;8005;51.368;6.140;2022-09-09T07:41:06;7.72;;;2.03;;
15806;SDS011;8005;51.368;6.140;2022-09-09T07:42:43;8.75;;;1.45;;
15806;SDS011;8005;51.368;6.140;2022-09-09T07:44:16;9.00;;;1.67;;
15806;SDS011;8005;51.368;6.140;2022-09-09T07:45:59;7.85;;;1.33;;
15806;SDS011;8005;51.368;6.140;2022-09-09T07:47:33;8.50;;;1.70;;
15806;SDS011;8005;51.368;6.140;2022-09-09T07:50:38;8.77;;;2.13;;
15806;SDS011;8005;51.368;6.140;2022-09-09T07:52:12;8.40;;;1.30;;
15806;SDS011;8005;51.368;6.140;2022-09-09T07:53:58;6.50;;;1.65;;
15806;SDS011;8005;51.368;6.140;2022-09-09T07:55:32;9.23;;;1.60;;
15806;SDS011;8005;51.368;6.140;2022-09-09T07:57:04;7.47;;;1.80;;
15806;SDS011;8005;51.368;6.140;2022-09-09T07:58:39;9.93;;;1.55;;
15806;SDS011;8005;51.368;6.140;2022-09-09T08:00:13;5.97;;;1.00;;
15806;SDS011;8005;51.368;6.140;2022-09-09T08:01:52;8.38;;;1.95;;
15806;SDS011;8005;51.368;6.140;2022-09-09T08:03:31;10.75;;;1.35;;
15806;SDS011;8005;51.368;6.140;2022-09-09T08:05:03;9.02;;;1.80;;
15806;SDS011;8005;51.368;6.140;2022-09-09T08:06:37;6.53;;;1.35;;
15806;SDS011;8005;51.368;6.140;2022-09-09T08:08:13;5.70;;;1.27;;
15806;SDS011;8005;51.368;6.140;2022-09-09T08:09:45;10.25;;;1.77;;
15806;SDS011;8005;51.368;6.140;2022-09-09T08:11:26;12.13;;;1.42;;
15806;SDS011;8005;51.368;6.140;2022-09-09T08:12:59;8.00;;;1.48;;
15806;SDS011;8005;51.368;6.140;2022-09-09T08:14:49;5.63;;;1.40;;
15806;SDS011;8005;51.368;6.140;2022-09-09T08:16:24;6.97;;;1.48;;
15806;SDS011;8005;51.368;6.140;2022-09-09T08:17:58;7.70;;;1.60;;
15806;SDS011;8005;51.368;6.140;2022-09-09T08:19:30;10.57;;;1.88;;
15806;SDS011;8005;51.368;6.140;2022-09-09T08:21:08;5.57;;;1.30;;
15806;SDS011;8005;51.368;6.140;2022-09-09T08:22:43;7.40;;;1.00;;
15806;SDS011;8005;51.368;6.140;2022-09-09T08:24:16;5.88;;;1.15;;
15806;SDS011;8005;51.368;6.140;2022-09-09T08:25:51;10.68;;;1.63;;
15806;SDS011;8005;51.368;6.140;2022-09-09T08:27:23;7.53;;;1.57;;
15806;SDS011;8005;51.368;6.140;2022-09-09T08:28:58;8.00;;;0.82;;
15806;SDS011;8005;51.368;6.140;2022-09-09T08:30:31;6.00;;;1.00;;
15806;SDS011;8005;51.368;6.140;2022-09-09T08:32:03;7.88;;;0.90;;
15806;SDS011;8005;51.368;6.140;2022-09-09T08:33:37;7.57;;;1.10;;
15806;SDS011;8005;51.368;6.140;2022-09-09T08:35:10;8.60;;;1.83;;
15806;SDS011;8005;51.368;6.140;2022-09-09T08:36:44;6.32;;;0.85;;
15806;SDS011;8005;51.368;6.140;2022-09-09T08:38:17;12.38;;;1.80;;
15806;SDS011;8005;51.368;6.140;2022-09-09T08:39:50;4.22;;;0.80;;
15806;SDS011;8005;51.368;6.140;2022-09-09T08:43:09;8.65;;;1.40;;
15806;SDS011;8005;51.368;6.140;2022-09-09T08:44:48;9.52;;;1.35;;
15806;SDS011;8005;51.368;6.140;2022-09-09T08:46:25;7.63;;;1.40;;
15806;SDS011;8005;51.368;6.140;2022-09-09T08:50:13;8.73;;;1.17;;
15806;SDS011;8005;51.368;6.140;2022-09-09T08:52:00;4.55;;;0.98;;
15806;SDS011;8005;51.368;6.140;2022-09-09T08:53:44;4.57;;;1.00;;
15806;SDS011;8005;51.368;6.140;2022-09-09T08:56:55;9.25;;;1.40;;
15806;SDS011;8005;51.368;6.140;2022-09-09T08:58:29;6.57;;;1.15;;
15806;SDS011;8005;51.368;6.140;2022-09-09T09:00:07;5.95;;;1.35;;
15806;SDS011;8005;51.368;6.140;2022-09-09T09:01:54;6.40;;;1.38;;
15806;SDS011;8005;51.368;6.140;2022-09-09T09:05:59;7.20;;;1.50;;
15806;SDS011;8005;51.368;6.140;2022-09-09T09:07:57;6.35;;;1.45;;
15806;SDS011;8005;51.368;6.140;2022-09-09T09:11:38;3.45;;;1.00;;
15806;SDS011;8005;51.368;6.140;2022-09-09T09:13:18;9.38;;;1.90;;
15806;SDS011;8005;51.368;6.140;2022-09-09T09:15:00;8.98;;;1.42;;
15806;SDS011;8005;51.368;6.140;2022-09-09T09:16:33;6.32;;;1.33;;
15806;SDS011;8005;51.368;6.140;2022-09-09T09:18:10;8.93;;;1.50;;
15806;SDS011;8005;51.368;6.140;2022-09-09T09:19:44;4.50;;;1.23;;
15806;SDS011;8005;51.368;6.140;2022-09-09T09:23:35;9.48;;;1.25;;
15806;SDS011;8005;51.368;6.140;2022-09-09T09:25:15;6.60;;;1.00;;
15806;SDS011;8005;51.368;6.140;2022-09-09T09:26:50;8.27;;;2.50;;
15806;SDS011;8005;51.368;6.140;2022-09-09T09:28:24;8.23;;;1.15;;
15806;SDS011;8005;51.368;6.140;2022-09-09T09:30:12;5.57;;;0.98;;
15806;SDS011;8005;51.368;6.140;2022-09-09T09:32:05;7.35;;;1.48;;
15806;SDS011;8005;51.368;6.140;2022-09-09T09:35:18;11.45;;;1.55;;
15806;SDS011;8005;51.368;6.140;2022-09-09T09:36:54;9.40;;;1.67;;
15806;SDS011;8005;51.368;6.140;2022-09-09T09:38:30;5.80;;;1.10;;
15806;SDS011;8005;51.368;6.140;2022-09-09T09:40:22;7.75;;;1.45;;
15806;SDS011;8005;51.368;6.140;2022-09-09T09:41:55;3.85;;;0.70;;
15806;SDS011;8005;51.368;6.140;2022-09-09T09:43:32;4.05;;;0.77;;
15806;SDS011;8005;51.368;6.140;2022-09-09T09:45:51;5.88;;;1.08;;
15806;SDS011;8005;51.368;6.140;2022-09-09T09:48:56;5.60;;;0.90;;
15806;SDS011;8005;51.368;6.140;2022-09-09T09:50:35;10.35;;;1.20;;
15806;SDS011;8005;51.368;6.140;2022-09-09T09:52:21;8.10;;;1.20;;
15806;SDS011;8005;51.368;6.140;2022-09-09T09:54:17;6.60;;;1.13;;
15806;SDS011;8005;51.368;6.140;2022-09-09T09:55:59;6.05;;;1.35;;
15806;SDS011;8005;51.368;6.140;2022-09-09T09:57:36;6.50;;;1.52;;
15806;SDS011;8005;51.368;6.140;2022-09-09T10:02:59;5.55;;;0.98;;
15806;SDS011;8005;51.368;6.140;2022-09-09T10:04:35;11.70;;;1.38;;
15806;SDS011;8005;51.368;6.140;2022-09-09T10:06:07;7.53;;;1.63;;
15806;SDS011;8005;51.368;6.140;2022-09-09T10:07:39;4.17;;;1.20;;
15806;SDS011;8005;51.368;6.140;2022-09-09T10:09:25;7.00;;;0.80;;
15806;SDS011;8005;51.368;6.140;2022-09-09T10:12:51;11.25;;;1.48;;
15806;SDS011;8005;51.368;6.140;2022-09-09T10:14:36;5.78;;;1.13;;
15806;SDS011;8005;51.368;6.140;2022-09-09T10:25:53;7.85;;;1.17;;
15806;SDS011;8005;51.368;6.140;2022-09-09T10:33:23;6.80;;;1.23;;
15806;SDS011;8005;51.368;6.140;2022-09-09T10:36:37;4.30;;;1.25;;
15806;SDS011;8005;51.368;6.140;2022-09-09T10:39:52;10.18;;;1.58;;
15806;SDS011;8005;51.368;6.140;2022-09-09T10:41:36;5.28;;;1.05;;
15806;SDS011;8005;51.368;6.140;2022-09-09T10:45:35;10.52;;;1.10;;
15806;SDS011;8005;51.368;6.140;2022-09-09T10:47:38;8.45;;;1.10;;
15806;SDS011;8005;51.368;6.140;2022-09-09T10:49:19;7.53;;;1.10;;
15806;SDS011;8005;51.368;6.140;2022-09-09T10:51:11;8.18;;;1.05;;
15806;SDS011;8005;51.368;6.140;2022-09-09T10:56:29;8.93;;;1.10;;
15806;SDS011;8005;51.368;6.140;2022-09-09T10:58:02;5.40;;;1.30;;
15806;SDS011;8005;51.368;6.140;2022-09-09T10:59:37;6.45;;;1.02;;
15806;SDS011;8005;51.368;6.140;2022-09-09T11:01:23;3.40;;;1.20;;
15806;SDS011;8005;51.368;6.140;2022-09-09T11:02:58;7.28;;;1.60;;
15806;SDS011;8005;51.368;6.140;2022-09-09T11:04:44;5.03;;;1.40;;
15806;SDS011;8005;51.368;6.140;2022-09-09T11:06:35;6.82;;;1.50;;
15806;SDS011;8005;51.368;6.140;2022-09-09T11:08:21;9.57;;;2.05;;
15806;SDS011;8005;51.368;6.140;2022-09-09T11:10:03;8.88;;;1.65;;
15806;SDS011;8005;51.368;6.140;2022-09-09T11:11:41;5.65;;;1.48;;
15806;SDS011;8005;51.368;6.140;2022-09-09T11:13:23;6.45;;;1.63;;
15806;SDS011;8005;51.368;6.140;2022-09-09T11:15:04;9.45;;;1.73;;
15806;SDS011;8005;51.368;6.140;2022-09-09T11:16:42;7.28;;;2.17;;
15806;SDS011;8005;51.368;6.140;2022-09-09T11:18:20;6.75;;;1.20;;
15806;SDS011;8005;51.368;6.140;2022-09-09T11:19:55;6.25;;;1.70;;
15806;SDS011;8005;51.368;6.140;2022-09-09T11:21:46;7.88;;;1.40;;
15806;SDS011;8005;51.368;6.140;2022-09-09T11:23:23;5.30;;;1.48;;